sensor_id;sensor_type;location;lat;lon;timestamp;pressure;altitude;pressure_sealevel;temperature;humidity
73696;BME280;62000;42.262;12.210;2022-07-22T00:00:58;97508.06;;;23.55;100.00
73696;BME280;62000;42.262;12.210;2022-07-22T00:03:24;97503.69;;;23.47;100.00
73696;BME280;62000;42.262;12.210;2022-07-22T00:05:50;97500.97;;;23.55;100.00
73696;BME280;62000;42.262;12.210;2022-07-22T00:08:16;97500.63;;;23.59;100.00
73696;BME280;62000;42.262;12.210;2022-07-22T00:10:43;97497.72;;;23.68;100.00
73696;BME280;62000;42.262;12.210;2022-07-22T00:13:10;97493.91;;;23.71;100.00
73696;BME280;62000;42.262;12.210;2022-07-22T00:15:39;97495.19;;;23.75;100.00
73696;BME280;62000;42.262;12.210;2022-07-22T00:18:05;97498.56;;;23.84;100.00
73696;BME280;62000;42.262;12.210;2022-07-22T00:20:32;97498.75;;;23.82;100.00
73696;BME280;62000;42.262;12.210;2022-07-22T00:22:58;97497.00;;;23.89;100.00
73696;BME280;62000;42.262;12.210;2022-07-22T00:25:25;97491.28;;;23.86;100.00
73696;BME280;62000;42.262;12.210;2022-07-22T00:27:51;97498.69;;;23.23;100.00
73696;BME280;62000;42.262;12.210;2022-07-22T00:30:17;97485.28;;;22.71;100.00
73696;BME280;62000;42.262;12.210;2022-07-22T00:32:44;97485.31;;;22.63;100.00
73696;BME280;62000;42.262;12.210;2022-07-22T00:35:10;97484.81;;;22.68;100.00
73696;BME280;62000;42.262;12.210;2022-07-22T00:37:36;97485.19;;;22.56;100.00
73696;BME280;62000;42.262;12.210;2022-07-22T00:40:03;97478.50;;;21.83;100.00
73696;BME280;62000;42.262;12.210;2022-07-22T00:42:30;97482.88;;;21.99;100.00
73696;BME280;62000;42.262;12.210;2022-07-22T00:44:57;97473.88;;;21.93;100.00
73696;BME280;62000;42.262;12.210;2022-07-22T00:47:23;97478.56;;;21.66;100.00
73696;BME280;62000;42.262;12.210;2022-07-22T00:49:49;97470.84;;;21.73;100.00
73696;BME280;62000;42.262;12.210;2022-07-22T00:52:16;97471.38;;;21.52;100.00
73696;BME280;62000;42.262;12.210;2022-07-22T00:54:44;97469.25;;;21.47;100.00
73696;BME280;62000;42.262;12.210;2022-07-22T00:57:10;97460.44;;;21.80;100.00
73696;BME280;62000;42.262;12.210;2022-07-22T00:59:36;97469.19;;;21.72;100.00
73696;BME280;62000;42.262;12.210;2022-07-22T01:02:03;97457.09;;;21.63;100.00
73696;BME280;62000;42.262;12.210;2022-07-22T01:04:29;97456.53;;;21.76;100.00
73696;BME280;62000;42.262;12.210;2022-07-22T01:06:56;97450.94;;;21.79;100.00
73696;BME280;62000;42.262;12.210;2022-07-22T01:09:22;97456.34;;;21.85;100.00
73696;BME280;62000;42.262;12.210;2022-07-22T01:11:48;97454.84;;;21.91;100.00
73696;BME280;62000;42.262;12.210;2022-07-22T01:14:14;97447.47;;;22.18;100.00
73696;BME280;62000;42.262;12.210;2022-07-22T01:16:41;97450.72;;;21.89;100.00
73696;BME280;62000;42.262;12.210;2022-07-22T01:19:07;97451.75;;;21.88;100.00
73696;BME280;62000;42.262;12.210;2022-07-22T01:21:33;97444.47;;;21.98;100.00
73696;BME280;62000;42.262;12.210;2022-07-22T01:24:00;97444.84;;;22.18;100.00
73696;BME280;62000;42.262;12.210;2022-07-22T01:26:27;97439.31;;;22.04;100.00
73696;BME280;62000;42.262;12.210;2022-07-22T01:28:54;97442.09;;;22.11;100.00
73696;BME280;62000;42.262;12.210;2022-07-22T01:31:20;97446.97;;;22.46;100.00
73696;BME280;62000;42.262;12.210;2022-07-22T01:33:47;97443.66;;;22.52;100.00
73696;BME280;62000;42.262;12.210;2022-07-22T01:36:13;97446.84;;;22.85;100.00
73696;BME280;62000;42.262;12.210;2022-07-22T01:38:40;97447.44;;;22.72;100.00
73696;BME280;62000;42.262;12.210;2022-07-22T01:41:06;97441.09;;;22.43;100.00
73696;BME280;62000;42.262;12.210;2022-07-22T01:43:33;97440.91;;;22.45;100.00
73696;BME280;62000;42.262;12.210;2022-07-22T01:45:59;97440.69;;;22.32;100.00
73696;BME280;62000;42.262;12.210;2022-07-22T01:48:25;97431.13;;;21.99;100.00
73696;BME280;62000;42.262;12.210;2022-07-22T01:50:52;97424.75;;;22.25;100.00
73696;BME280;62000;42.262;12.210;2022-07-22T01:53:19;97429.94;;;22.41;100.00
73696;BME280;62000;42.262;12.210;2022-07-22T01:55:46;97422.81;;;22.19;100.00
73696;BME280;62000;42.262;12.210;2022-07-22T01:58:12;97419.19;;;22.28;100.00
73696;BME280;62000;42.262;12.210;2022-07-22T02:00:39;97418.78;;;22.39;100.00
73696;BME280;62000;42.262;12.210;2022-07-22T02:03:06;97424.16;;;22.46;100.00
73696;BME280;62000;42.262;12.210;2022-07-22T02:05:39;97419.53;;;22.71;100.00
73696;BME280;62000;42.262;12.210;2022-07-22T02:08:07;97426.81;;;22.84;100.00
73696;BME280;62000;42.262;12.210;2022-07-22T02:10:34;97425.72;;;22.78;100.00
73696;BME280;62000;42.262;12.210;2022-07-22T02:13:01;97420.81;;;20.78;100.00
73696;BME280;62000;42.262;12.210;2022-07-22T02:15:28;97409.81;;;20.99;100.00
73696;BME280;62000;42.262;12.210;2022-07-22T02:17:55;97411.44;;;21.16;100.00
73696;BME280;62000;42.262;12.210;2022-07-22T02:20:22;97400.84;;;21.49;100.00
73696;BME280;62000;42.262;12.210;2022-07-22T02:22:48;97403.19;;;21.36;100.00
73696;BME280;62000;42.262;12.210;2022-07-22T02:25:14;97403.16;;;21.52;100.00
73696;BME280;62000;42.262;12.210;2022-07-22T02:27:43;97403.34;;;21.82;100.00
73696;BME280;62000;42.262;12.210;2022-07-22T02:30:09;97413.16;;;21.88;100.00
73696;BME280;62000;42.262;12.210;2022-07-22T02:32:36;97418.13;;;22.06;100.00
73696;BME280;62000;42.262;12.210;2022-07-22T02:35:03;97424.13;;;21.92;100.00
73696;BME280;62000;42.262;12.210;2022-07-22T02:37:29;97410.69;;;21.86;100.00
73696;BME280;62000;42.262;12.210;2022-07-22T02:39:56;97426.91;;;21.90;100.00
73696;BME280;62000;42.262;12.210;2022-07-22T02:42:21;97422.59;;;22.05;100.00
73696;BME280;62000;42.262;12.210;2022-07-22T02:44:48;97420.16;;;21.96;100.00
73696;BME280;62000;42.262;12.210;2022-07-22T02:47:14;97419.34;;;21.95;100.00
73696;BME280;62000;42.262;12.210;2022-07-22T02:49:40;97416.69;;;22.03;100.00
73696;BME280;62000;42.262;12.210;2022-07-22T02:52:07;97427.34;;;22.33;100.00
73696;BME280;62000;42.262;12.210;2022-07-22T02:54:33;97427.81;;;22.60;100.00
73696;BME280;62000;42.262;12.210;2022-07-22T02:57:02;97433.06;;;22.60;100.00
73696;BME280;62000;42.262;12.210;2022-07-22T02:59:28;97428.88;;;22.51;100.00
73696;BME280;62000;42.262;12.210;2022-07-22T03:01:55;97430.41;;;22.45;100.00
73696;BME280;62000;42.262;12.210;2022-07-22T03:04:21;97430.69;;;22.50;100.00
73696;BME280;62000;42.262;12.210;2022-07-22T03:06:47;97423.63;;;21.96;100.00
73696;BME280;62000;42.262;12.210;2022-07-22T03:09:13;97419.47;;;22.02;100.00
73696;BME280;62000;42.262;12.210;2022-07-22T03:11:40;97410.38;;;22.13;100.00
73696;BME280;62000;42.262;12.210;2022-07-22T03:14:06;97412.00;;;22.14;100.00
73696;BME280;62000;42.262;12.210;2022-07-22T03:16:32;97408.31;;;22.31;100.00
73696;BME280;62000;42.262;12.210;2022-07-22T03:18:59;97410.16;;;22.22;100.00
73696;BME280;62000;42.262;12.210;2022-07-22T03:21:25;97405.34;;;22.26;100.00
73696;BME280;62000;42.262;12.210;2022-07-22T03:23:51;97396.03;;;22.23;100.00
73696;BME280;62000;42.262;12.210;2022-07-22T03:26:23;97406.44;;;21.46;100.00
73696;BME280;62000;42.262;12.210;2022-07-22T03:28:50;97390.44;;;21.64;100.00
73696;BME280;62000;42.262;12.210;2022-07-22T03:31:16;97397.34;;;21.96;100.00
73696;BME280;62000;42.262;12.210;2022-07-22T03:33:42;97392.84;;;21.82;100.00
73696;BME280;62000;42.262;12.210;2022-07-22T03:36:09;97393.50;;;21.76;100.00
73696;BME280;62000;42.262;12.210;2022-07-22T03:38:35;97393.06;;;21.64;100.00
73696;BME280;62000;42.262;12.210;2022-07-22T03:41:02;97395.28;;;21.83;100.00
73696;BME280;62000;42.262;12.210;2022-07-22T03:43:29;97397.81;;;21.68;100.00
73696;BME280;62000;42.262;12.210;2022-07-22T03:45:55;97402.09;;;21.70;100.00
73696;BME280;62000;42.262;12.210;2022-07-22T03:48:21;97401.78;;;21.64;100.00
73696;BME280;62000;42.262;12.210;2022-07-22T03:50:48;97422.94;;;21.94;100.00
73696;BME280;62000;42.262;12.210;2022-07-22T03:53:16;97442.03;;;21.88;100.00
73696;BME280;62000;42.262;12.210;2022-07-22T03:55:42;97455.38;;;22.10;100.00
73696;BME280;62000;42.262;12.210;2022-07-22T03:58:08;97449.16;;;22.11;100.00
73696;BME280;62000;42.262;12.210;2022-07-22T04:00:35;97459.50;;;22.12;100.00
73696;BME280;62000;42.262;12.210;2022-07-22T04:03:01;97463.09;;;22.11;100.00
73696;BME280;62000;42.262;12.210;2022-07-22T04:05:27;97468.50;;;22.18;100.00
73696;BME280;62000;42.262;12.210;2022-07-22T04:07:54;97472.69;;;22.35;100.00
73696;BME280;62000;42.262;12.210;2022-07-22T04:10:20;97460.00;;;22.08;100.00
73696;BME280;62000;42.262;12.210;2022-07-22T04:12:46;97462.31;;;22.02;100.00
73696;BME280;62000;42.262;12.210;2022-07-22T04:15:13;97461.94;;;21.82;100.00
73696;BME280;62000;42.262;12.210;2022-07-22T04:17:39;97449.34;;;21.70;100.00
73696;BME280;62000;42.262;12.210;2022-07-22T04:20:06;97447.59;;;21.93;100.00
73696;BME280;62000;42.262;12.210;2022-07-22T04:22:32;97453.38;;;22.28;100.00
73696;BME280;62000;42.262;12.210;2022-07-22T04:24:57;97442.00;;;21.96;100.00
73696;BME280;62000;42.262;12.210;2022-07-22T04:27:24;97440.03;;;21.98;100.00
73696;BME280;62000;42.262;12.210;2022-07-22T04:29:50;97438.00;;;22.09;100.00
73696;BME280;62000;42.262;12.210;2022-07-22T04:32:16;97428.81;;;22.04;100.00
73696;BME280;62000;42.262;12.210;2022-07-22T04:34:43;97434.22;;;22.42;100.00
73696;BME280;62000;42.262;12.210;2022-07-22T04:37:09;97433.25;;;22.04;100.00
73696;BME280;62000;42.262;12.210;2022-07-22T04:39:35;97444.78;;;22.34;100.00
73696;BME280;62000;42.262;12.210;2022-07-22T04:42:01;97444.91;;;22.41;100.00
73696;BME280;62000;42.262;12.210;2022-07-22T04:44:28;97444.78;;;22.57;100.00
73696;BME280;62000;42.262;12.210;2022-07-22T04:46:54;97446.75;;;22.55;100.00
73696;BME280;62000;42.262;12.210;2022-07-22T04:49:20;97443.41;;;22.61;100.00
73696;BME280;62000;42.262;12.210;2022-07-22T04:51:49;97439.25;;;22.67;100.00
73696;BME280;62000;42.262;12.210;2022-07-22T04:54:16;97441.31;;;22.02;100.00
73696;BME280;62000;42.262;12.210;2022-07-22T04:56:42;97450.72;;;21.89;100.00
73696;BME280;62000;42.262;12.210;2022-07-22T04:59:08;97448.44;;;21.46;100.00
73696;BME280;62000;42.262;12.210;2022-07-22T05:01:34;97459.38;;;22.05;100.00
73696;BME280;62000;42.262;12.210;2022-07-22T05:04:01;97452.66;;;22.26;100.00
73696;BME280;62000;42.262;12.210;2022-07-22T05:06:28;97459.03;;;22.63;100.00
73696;BME280;62000;42.262;12.210;2022-07-22T05:08:54;97468.84;;;22.92;100.00
73696;BME280;62000;42.262;12.210;2022-07-22T05:11:20;97471.81;;;23.12;100.00
73696;BME280;62000;42.262;12.210;2022-07-22T05:13:47;97479.06;;;23.25;100.00
73696;BME280;62000;42.262;12.210;2022-07-22T05:16:13;97480.06;;;23.24;100.00
73696;BME280;62000;42.262;12.210;2022-07-22T05:18:39;97486.38;;;23.53;100.00
73696;BME280;62000;42.262;12.210;2022-07-22T05:21:06;97489.00;;;23.68;100.00
73696;BME280;62000;42.262;12.210;2022-07-22T05:23:32;97501.81;;;24.01;100.00
73696;BME280;62000;42.262;12.210;2022-07-22T05:25:58;97496.25;;;24.10;100.00
73696;BME280;62000;42.262;12.210;2022-07-22T05:28:25;97503.22;;;24.18;100.00
73696;BME280;62000;42.262;12.210;2022-07-22T05:30:51;97496.81;;;24.42;100.00
73696;BME280;62000;42.262;12.210;2022-07-22T05:33:17;97494.78;;;24.59;100.00
73696;BME280;62000;42.262;12.210;2022-07-22T05:35:44;97502.44;;;24.76;100.00
73696;BME280;62000;42.262;12.210;2022-07-22T05:38:10;97507.84;;;24.89;100.00
73696;BME280;62000;42.262;12.210;2022-07-22T05:40:36;97498.91;;;24.90;100.00
73696;BME280;62000;42.262;12.210;2022-07-22T05:43:03;97500.44;;;24.99;100.00
73696;BME280;62000;42.262;12.210;2022-07-22T05:45:29;97491.06;;;24.75;100.00
73696;BME280;62000;42.262;12.210;2022-07-22T05:47:55;97492.41;;;24.64;100.00
73696;BME280;62000;42.262;12.210;2022-07-22T05:50:25;97477.84;;;23.81;100.00
73696;BME280;62000;42.262;12.210;2022-07-22T05:52:51;97473.66;;;23.86;100.00
73696;BME280;62000;42.262;12.210;2022-07-22T05:55:17;97476.91;;;24.03;100.00
73696;BME280;62000;42.262;12.210;2022-07-22T05:57:44;97481.97;;;24.20;100.00
73696;BME280;62000;42.262;12.210;2022-07-22T06:00:10;97476.38;;;24.29;100.00
73696;BME280;62000;42.262;12.210;2022-07-22T06:02:37;97486.88;;;24.23;100.00
73696;BME280;62000;42.262;12.210;2022-07-22T06:05:03;97479.66;;;24.31;100.00
73696;BME280;62000;42.262;12.210;2022-07-22T06:07:29;97466.72;;;24.37;100.00
73696;BME280;62000;42.262;12.210;2022-07-22T06:09:56;97462.97;;;24.24;100.00
73696;BME280;62000;42.262;12.210;2022-07-22T06:12:22;97467.47;;;24.30;100.00
73696;BME280;62000;42.262;12.210;2022-07-22T06:14:49;97472.84;;;24.37;100.00
73696;BME280;62000;42.262;12.210;2022-07-22T06:17:15;97474.06;;;24.56;100.00
73696;BME280;62000;42.262;12.210;2022-07-22T06:19:41;97484.31;;;24.66;100.00
73696;BME280;62000;42.262;12.210;2022-07-22T06:22:07;97490.53;;;24.80;100.00
73696;BME280;62000;42.262;12.210;2022-07-22T06:24:35;97496.50;;;24.88;100.00
73696;BME280;62000;42.262;12.210;2022-07-22T06:27:01;97488.28;;;25.05;100.00
73696;BME280;62000;42.262;12.210;2022-07-22T06:29:27;97492.84;;;25.18;100.00
73696;BME280;62000;42.262;12.210;2022-07-22T06:31:54;97490.72;;;25.28;100.00
73696;BME280;62000;42.262;12.210;2022-07-22T06:34:21;97499.56;;;25.42;100.00
73696;BME280;62000;42.262;12.210;2022-07-22T06:36:47;97495.78;;;25.58;100.00
73696;BME280;62000;42.262;12.210;2022-07-22T06:39:13;97504.41;;;25.73;100.00
73696;BME280;62000;42.262;12.210;2022-07-22T06:41:39;97498.81;;;25.90;100.00
73696;BME280;62000;42.262;12.210;2022-07-22T06:44:06;97502.19;;;26.12;100.00
73696;BME280;62000;42.262;12.210;2022-07-22T06:46:32;97507.09;;;26.21;100.00
73696;BME280;62000;42.262;12.210;2022-07-22T06:48:58;97509.13;;;26.19;100.00
73696;BME280;62000;42.262;12.210;2022-07-22T06:51:25;97509.94;;;26.13;100.00
73696;BME280;62000;42.262;12.210;2022-07-22T06:53:51;97513.22;;;26.29;100.00
73696;BME280;62000;42.262;12.210;2022-07-22T06:56:18;97515.50;;;26.38;100.00
73696;BME280;62000;42.262;12.210;2022-07-22T06:58:44;97517.66;;;26.76;100.00
73696;BME280;62000;42.262;12.210;2022-07-22T07:01:10;97524.28;;;26.59;100.00
73696;BME280;62000;42.262;12.210;2022-07-22T07:03:37;97522.19;;;26.34;100.00
73696;BME280;62000;42.262;12.210;2022-07-22T07:06:04;97515.31;;;26.47;100.00
73696;BME280;62000;42.262;12.210;2022-07-22T07:08:30;97533.72;;;26.62;100.00
73696;BME280;62000;42.262;12.210;2022-07-22T07:10:56;97522.31;;;26.68;100.00
73696;BME280;62000;42.262;12.210;2022-07-22T07:13:22;97529.47;;;26.87;100.00
73696;BME280;62000;42.262;12.210;2022-07-22T07:15:48;97528.88;;;27.12;100.00
73696;BME280;62000;42.262;12.210;2022-07-22T07:18:15;97531.94;;;27.29;100.00
73696;BME280;62000;42.262;12.210;2022-07-22T07:20:41;97533.38;;;27.31;100.00
73696;BME280;62000;42.262;12.210;2022-07-22T07:23:07;97534.81;;;27.27;100.00
73696;BME280;62000;42.262;12.210;2022-07-22T07:25:34;97530.91;;;27.23;100.00
73696;BME280;62000;42.262;12.210;2022-07-22T07:28:00;97533.97;;;27.47;100.00
73696;BME280;62000;42.262;12.210;2022-07-22T07:30:27;97534.34;;;27.70;100.00
73696;BME280;62000;42.262;12.210;2022-07-22T07:32:53;97539.47;;;27.65;100.00
73696;BME280;62000;42.262;12.210;2022-07-22T07:35:20;97539.06;;;27.68;100.00
73696;BME280;62000;42.262;12.210;2022-07-22T07:37:46;97544.84;;;28.17;100.00
73696;BME280;62000;42.262;12.210;2022-07-22T07:40:12;97547.28;;;28.25;100.00
73696;BME280;62000;42.262;12.210;2022-07-22T07:42:38;97552.41;;;28.14;100.00
73696;BME280;62000;42.262;12.210;2022-07-22T07:45:05;97567.91;;;28.69;100.00
73696;BME280;62000;42.262;12.210;2022-07-22T07:47:31;97570.84;;;28.85;100.00
73696;BME280;62000;42.262;12.210;2022-07-22T07:49:58;97578.25;;;28.77;100.00
73696;BME280;62000;42.262;12.210;2022-07-22T07:52:26;97581.13;;;29.07;100.00
73696;BME280;62000;42.262;12.210;2022-07-22T07:54:52;97583.63;;;29.02;100.00
73696;BME280;62000;42.262;12.210;2022-07-22T07:57:21;97581.09;;;29.46;100.00
73696;BME280;62000;42.262;12.210;2022-07-22T07:59:49;97582.97;;;29.38;100.00
73696;BME280;62000;42.262;12.210;2022-07-22T08:02:15;97585.19;;;29.92;100.00
73696;BME280;62000;42.262;12.210;2022-07-22T08:04:41;97587.25;;;29.90;100.00
73696;BME280;62000;42.262;12.210;2022-07-22T08:07:07;97589.47;;;29.68;100.00
73696;BME280;62000;42.262;12.210;2022-07-22T08:09:34;97581.84;;;29.96;100.00
73696;BME280;62000;42.262;12.210;2022-07-22T08:12:04;97585.97;;;29.92;100.00
73696;BME280;62000;42.262;12.210;2022-07-22T08:14:31;97583.03;;;30.01;100.00
73696;BME280;62000;42.262;12.210;2022-07-22T08:16:57;97581.94;;;30.08;100.00
73696;BME280;62000;42.262;12.210;2022-07-22T08:19:23;97584.91;;;30.67;100.00
73696;BME280;62000;42.262;12.210;2022-07-22T08:21:50;97583.44;;;30.71;100.00
73696;BME280;62000;42.262;12.210;2022-07-22T08:24:16;97577.13;;;30.54;100.00
73696;BME280;62000;42.262;12.210;2022-07-22T08:26:42;97580.31;;;30.44;100.00
73696;BME280;62000;42.262;12.210;2022-07-22T08:29:08;97578.22;;;30.65;100.00
73696;BME280;62000;42.262;12.210;2022-07-22T08:31:36;97578.22;;;30.95;100.00
73696;BME280;62000;42.262;12.210;2022-07-22T08:34:03;97578.06;;;31.44;100.00
73696;BME280;62000;42.262;12.210;2022-07-22T08:36:30;97582.38;;;31.57;100.00
73696;BME280;62000;42.262;12.210;2022-07-22T08:38:56;97577.63;;;32.06;100.00
73696;BME280;62000;42.262;12.210;2022-07-22T08:41:24;97578.31;;;32.13;100.00
73696;BME280;62000;42.262;12.210;2022-07-22T08:43:51;97586.75;;;32.34;100.00
73696;BME280;62000;42.262;12.210;2022-07-22T08:46:19;97580.84;;;32.89;100.00
73696;BME280;62000;42.262;12.210;2022-07-22T08:48:47;97584.41;;;32.95;100.00
73696;BME280;62000;42.262;12.210;2022-07-22T08:51:13;97586.09;;;33.13;100.00
73696;BME280;62000;42.262;12.210;2022-07-22T08:53:40;97584.00;;;33.32;100.00
73696;BME280;62000;42.262;12.210;2022-07-22T08:56:06;97586.00;;;33.58;100.00
73696;BME280;62000;42.262;12.210;2022-07-22T08:58:32;97590.72;;;32.89;100.00
73696;BME280;62000;42.262;12.210;2022-07-22T09:03:31;97588.97;;;33.11;100.00
73696;BME280;62000;42.262;12.210;2022-07-22T09:05:58;97593.16;;;32.90;100.00
73696;BME280;62000;42.262;12.210;2022-07-22T09:08:26;97593.34;;;32.72;100.00
73696;BME280;62000;42.262;12.210;2022-07-22T09:10:55;97583.72;;;32.71;100.00
73696;BME280;62000;42.262;12.210;2022-07-22T09:13:24;97577.38;;;33.06;100.00
73696;BME280;62000;42.262;12.210;2022-07-22T09:16:11;97580.22;;;32.99;100.00
73696;BME280;62000;42.262;12.210;2022-07-22T09:21:19;97577.94;;;32.91;100.00
73696;BME280;62000;42.262;12.210;2022-07-22T09:23:49;97576.53;;;33.34;100.00
73696;BME280;62000;42.262;12.210;2022-07-22T09:30:22;97575.16;;;34.04;95.35
73696;BME280;62000;42.262;12.210;2022-07-22T09:34:04;97563.91;;;34.46;89.62
73696;BME280;62000;42.262;12.210;2022-07-22T09:37:54;97559.75;;;33.55;95.93
73696;BME280;62000;42.262;12.210;2022-07-22T09:42:07;97571.28;;;33.95;89.72
73696;BME280;62000;42.262;12.210;2022-07-22T09:45:33;97558.56;;;33.46;89.83
73696;BME280;62000;42.262;12.210;2022-07-22T09:48:20;97547.63;;;33.87;90.93
73696;BME280;62000;42.262;12.210;2022-07-22T09:51:46;97552.50;;;33.90;89.84
73696;BME280;62000;42.262;12.210;2022-07-22T09:56:01;97549.47;;;34.03;89.45
73696;BME280;62000;42.262;12.210;2022-07-22T09:59:42;97548.78;;;34.35;91.97
73696;BME280;62000;42.262;12.210;2022-07-22T10:06:47;97530.59;;;34.92;83.71
73696;BME280;62000;42.262;12.210;2022-07-22T10:16:44;97538.00;;;36.65;75.55
73696;BME280;62000;42.262;12.210;2022-07-22T10:19:14;97533.09;;;36.36;71.23
73696;BME280;62000;42.262;12.210;2022-07-22T10:21:44;97530.59;;;38.15;58.13
73696;BME280;62000;42.262;12.210;2022-07-22T10:24:18;97513.59;;;40.86;53.22
73696;BME280;62000;42.262;12.210;2022-07-22T10:26:59;97518.28;;;37.93;57.90
73696;BME280;62000;42.262;12.210;2022-07-22T10:29:40;97529.72;;;38.74;55.44
73696;BME280;62000;42.262;12.210;2022-07-22T10:37:38;97522.97;;;38.77;52.20
73696;BME280;62000;42.262;12.210;2022-07-22T10:40:19;97511.06;;;41.83;40.08
73696;BME280;62000;42.262;12.210;2022-07-22T10:45:29;97508.97;;;40.11;43.67
73696;BME280;62000;42.262;12.210;2022-07-22T10:48:02;97523.97;;;37.81;54.53
73696;BME280;62000;42.262;12.210;2022-07-22T10:53:16;97519.50;;;36.69;64.84
73696;BME280;62000;42.262;12.210;2022-07-22T10:56:05;97512.38;;;35.69;72.29
73696;BME280;62000;42.262;12.210;2022-07-22T11:01:08;97518.94;;;36.62;69.95
73696;BME280;62000;42.262;12.210;2022-07-22T11:03:38;97527.56;;;37.15;65.63
73696;BME280;62000;42.262;12.210;2022-07-22T11:08:52;97508.03;;;39.77;51.24
73696;BME280;62000;42.262;12.210;2022-07-22T11:11:39;97505.75;;;43.02;40.31
73696;BME280;62000;42.262;12.210;2022-07-22T11:16:43;97504.19;;;37.21;63.49
73696;BME280;62000;42.262;12.210;2022-07-22T11:19:09;97518.41;;;35.91;58.90
73696;BME280;62000;42.262;12.210;2022-07-22T11:21:36;97520.53;;;37.60;60.44
73696;BME280;62000;42.262;12.210;2022-07-22T11:24:04;97504.84;;;38.43;55.67
73696;BME280;62000;42.262;12.210;2022-07-22T11:29:06;97507.88;;;37.71;57.35
73696;BME280;62000;42.262;12.210;2022-07-22T11:31:33;97487.88;;;41.36;44.43
73696;BME280;62000;42.262;12.210;2022-07-22T11:34:06;97511.78;;;38.94;55.67
73696;BME280;62000;42.262;12.210;2022-07-22T11:36:34;97507.25;;;38.44;57.93
73696;BME280;62000;42.262;12.210;2022-07-22T11:39:00;97500.00;;;39.72;53.36
73696;BME280;62000;42.262;12.210;2022-07-22T11:41:28;97498.03;;;38.95;51.65
73696;BME280;62000;42.262;12.210;2022-07-22T11:43:54;97497.53;;;39.22;52.58
73696;BME280;62000;42.262;12.210;2022-07-22T11:46:20;97481.38;;;41.78;43.92
73696;BME280;62000;42.262;12.210;2022-07-22T11:48:46;97476.28;;;43.49;38.78
73696;BME280;62000;42.262;12.210;2022-07-22T11:51:13;97491.09;;;39.42;50.82
73696;BME280;62000;42.262;12.210;2022-07-22T11:53:41;97502.53;;;37.40;64.68
73696;BME280;62000;42.262;12.210;2022-07-22T11:56:09;97486.97;;;38.13;54.90
73696;BME280;62000;42.262;12.210;2022-07-22T11:58:37;97474.53;;;40.22;45.76
73696;BME280;62000;42.262;12.210;2022-07-22T12:01:05;97475.56;;;40.45;45.77
73696;BME280;62000;42.262;12.210;2022-07-22T12:03:35;97472.88;;;39.83;48.08
73696;BME280;62000;42.262;12.210;2022-07-22T12:06:03;97466.03;;;40.85;45.65
73696;BME280;62000;42.262;12.210;2022-07-22T12:08:30;97467.59;;;42.53;41.89
73696;BME280;62000;42.262;12.210;2022-07-22T12:10:57;97459.97;;;43.40;46.56
73696;BME280;62000;42.262;12.210;2022-07-22T12:13:31;97467.25;;;40.93;56.50
73696;BME280;62000;42.262;12.210;2022-07-22T12:19:07;97480.91;;;37.81;82.77
73696;BME280;62000;42.262;12.210;2022-07-22T12:55:48;97448.16;;;38.24;76.68
73696;BME280;62000;42.262;12.210;2022-07-22T12:58:37;97476.44;;;37.41;75.73
73696;BME280;62000;42.262;12.210;2022-07-22T13:17:40;97419.66;;;37.52;69.46
73696;BME280;62000;42.262;12.210;2022-07-22T13:27:50;97398.00;;;36.97;73.78
73696;BME280;62000;42.262;12.210;2022-07-22T13:31:42;97440.69;;;37.35;67.82
73696;BME280;62000;42.262;12.210;2022-07-22T13:40:36;97431.06;;;37.19;70.46
73696;BME280;62000;42.262;12.210;2022-07-22T13:43:43;97438.00;;;37.40;67.35
73696;BME280;62000;42.262;12.210;2022-07-22T14:06:27;97439.66;;;36.64;72.08
73696;BME280;62000;42.262;12.210;2022-07-22T14:09:58;97419.81;;;38.32;75.29
73696;BME280;62000;42.262;12.210;2022-07-22T14:19:41;97426.22;;;36.59;85.90
73696;BME280;62000;42.262;12.210;2022-07-22T14:26:56;97436.97;;;36.59;87.12
73696;BME280;62000;42.262;12.210;2022-07-22T14:33:49;97431.59;;;35.60;94.72
73696;BME280;62000;42.262;12.210;2022-07-22T14:40:43;97439.09;;;36.26;96.07
73696;BME280;62000;42.262;12.210;2022-07-22T15:00:19;97423.56;;;36.80;95.96
73696;BME280;62000;42.262;12.210;2022-07-22T15:17:58;97438.03;;;36.37;88.98
73696;BME280;62000;42.262;12.210;2022-07-22T15:30:01;97429.22;;;35.63;89.72
73696;BME280;62000;42.262;12.210;2022-07-22T15:32:27;97419.22;;;35.06;90.69
73696;BME280;62000;42.262;12.210;2022-07-22T15:43:13;97422.66;;;34.64;91.56
73696;BME280;62000;42.262;12.210;2022-07-22T15:49:02;97428.25;;;34.95;91.93
73696;BME280;62000;42.262;12.210;2022-07-22T15:51:48;97424.09;;;34.44;93.79
73696;BME280;62000;42.262;12.210;2022-07-22T16:02:54;97404.47;;;34.11;96.77
73696;BME280;62000;42.262;12.210;2022-07-22T16:08:42;97405.44;;;34.00;100.00
73696;BME280;62000;42.262;12.210;2022-07-22T16:14:56;97401.78;;;34.11;100.00
73696;BME280;62000;42.262;12.210;2022-07-22T16:18:03;97399.91;;;33.85;100.00
73696;BME280;62000;42.262;12.210;2022-07-22T16:34:25;97387.66;;;33.45;100.00
73696;BME280;62000;42.262;12.210;2022-07-22T16:39:53;97393.88;;;33.50;100.00
73696;BME280;62000;42.262;12.210;2022-07-22T16:42:41;97387.41;;;33.24;100.00
73696;BME280;62000;42.262;12.210;2022-07-22T16:56:33;97424.34;;;32.93;100.00
73696;BME280;62000;42.262;12.210;2022-07-22T17:02:01;97443.13;;;32.98;100.00
73696;BME280;62000;42.262;12.210;2022-07-22T17:04:48;97440.00;;;32.39;100.00
73696;BME280;62000;42.262;12.210;2022-07-22T17:11:27;97466.66;;;32.22;100.00
73696;BME280;62000;42.262;12.210;2022-07-22T17:14:09;97472.75;;;32.34;100.00